createdAt,value
2023-05-04T00:00:57.759Z,9.63
2023-05-04T00:03:24.231Z,9.57
2023-05-04T00:05:51.009Z,9.10
2023-05-04T00:08:17.617Z,9.33
2023-05-04T00:10:47.679Z,9.07
2023-05-04T00:13:14.047Z,9.07
2023-05-04T00:15:40.508Z,9.33
2023-05-04T00:18:07.291Z,8.33
2023-05-04T00:20:33.722Z,9.27
2023-05-04T00:23:00.075Z,8.90
2023-05-04T00:25:26.449Z,9.20
2023-05-04T00:27:52.795Z,9.23
2023-05-04T00:30:19.551Z,8.87
2023-05-04T00:32:46.435Z,8.30
2023-05-04T00:35:13.096Z,8.47
2023-05-04T00:37:39.551Z,9.77
2023-05-04T00:40:06.800Z,8.37
2023-05-04T00:42:33.371Z,9.10
2023-05-04T00:44:59.736Z,8.50
2023-05-04T00:47:26.438Z,9.53
2023-05-04T00:49:52.965Z,8.77
2023-05-04T00:52:20.739Z,8.90
2023-05-04T00:54:47.698Z,8.57
2023-05-04T00:57:15.766Z,9.43
2023-05-04T00:59:42.413Z,9.77
2023-05-04T01:02:08.872Z,8.87
2023-05-04T01:04:35.508Z,9.03
2023-05-04T01:07:07.564Z,9.73
2023-05-04T01:09:49.698Z,9.10
2023-05-04T01:13:10.036Z,9.20
2023-05-04T01:15:37.132Z,8.77
2023-05-04T01:18:03.747Z,9.17
2023-05-04T01:20:30.603Z,8.63
2023-05-04T01:22:57.203Z,9.70
2023-05-04T01:25:29.759Z,10.17
2023-05-04T01:28:06.880Z,8.67
2023-05-04T01:30:45.245Z,8.43
2023-05-04T01:33:12.314Z,9.20
2023-05-04T01:35:39.309Z,8.87
2023-05-04T01:38:05.799Z,9.53
2023-05-04T01:40:32.197Z,9.60
2023-05-04T01:42:58.573Z,10.00
2023-05-04T01:45:25.017Z,9.23
2023-05-04T01:47:51.424Z,8.67
2023-05-04T01:50:17.893Z,9.40
2023-05-04T01:52:44.289Z,9.93
2023-05-04T01:55:10.799Z,9.93
2023-05-04T01:57:37.279Z,8.90
2023-05-04T02:00:04.433Z,9.30
2023-05-04T02:02:42.063Z,8.77
2023-05-04T02:05:09.241Z,9.53
2023-05-04T02:07:35.678Z,9.67
2023-05-04T02:10:02.262Z,9.37
2023-05-04T02:12:28.982Z,9.97
2023-05-04T02:14:55.666Z,9.67
2023-05-04T02:17:22.094Z,10.00
2023-05-04T02:19:48.501Z,10.30
2023-05-04T02:22:14.958Z,8.90
2023-05-04T02:24:41.428Z,9.27
2023-05-04T02:27:07.787Z,9.80
2023-05-04T02:29:34.782Z,10.27
2023-05-04T02:32:01.254Z,9.17
2023-05-04T02:34:27.691Z,10.67
2023-05-04T02:36:54.138Z,9.90
2023-05-04T02:39:20.538Z,10.03
2023-05-04T02:41:46.948Z,9.57
2023-05-04T02:44:13.303Z,10.23
2023-05-04T02:46:39.650Z,9.77
2023-05-04T02:49:06.390Z,9.20
2023-05-04T02:51:32.746Z,9.43
2023-05-04T02:53:59.094Z,9.57
2023-05-04T02:56:25.450Z,10.50
2023-05-04T02:58:51.874Z,9.70
2023-05-04T03:01:18.348Z,8.63
2023-05-04T03:03:44.931Z,9.40
2023-05-04T03:06:11.587Z,9.00
2023-05-04T03:08:37.952Z,9.93
2023-05-04T03:11:04.326Z,10.00
2023-05-04T03:13:30.751Z,9.37
2023-05-04T03:15:58.514Z,9.80
2023-05-04T03:18:24.929Z,9.37
2023-05-04T03:20:51.438Z,9.17
2023-05-04T03:23:20.458Z,10.20
2023-05-04T03:25:47.209Z,10.23
2023-05-04T03:28:14.398Z,10.33
2023-05-04T03:30:41.914Z,9.27
2023-05-04T03:33:09.287Z,9.70
2023-05-04T03:35:35.806Z,9.33
2023-05-04T03:38:03.397Z,10.50
2023-05-04T03:40:29.813Z,9.20
2023-05-04T03:42:56.187Z,9.77
2023-05-04T03:45:23.685Z,9.07
2023-05-04T03:47:50.911Z,9.97
2023-05-04T03:50:17.393Z,9.30
2023-05-04T03:52:43.802Z,10.17
2023-05-04T03:55:11.178Z,10.30
2023-05-04T03:57:37.612Z,9.43
2023-05-04T04:00:05.691Z,10.07
2023-05-04T04:02:41.398Z,9.73
2023-05-04T04:05:09.961Z,9.60
2023-05-04T04:07:38.556Z,9.43
2023-05-04T04:10:06.238Z,9.33
2023-05-04T04:12:32.891Z,9.27
2023-05-04T04:14:59.282Z,9.57
2023-05-04T04:17:25.675Z,10.30
2023-05-04T04:19:52.062Z,10.13
2023-05-04T04:22:18.447Z,10.90
2023-05-04T04:24:44.803Z,11.60
2023-05-04T04:27:11.678Z,10.47
2023-05-04T04:29:39.485Z,9.93
2023-05-04T04:32:06.239Z,10.33
2023-05-04T04:34:32.797Z,10.30
2023-05-04T04:36:59.277Z,10.70
2023-05-04T04:39:25.739Z,10.53
2023-05-04T04:41:52.206Z,10.53
2023-05-04T04:44:18.616Z,11.70
2023-05-04T04:46:46.377Z,10.70
2023-05-04T04:49:12.946Z,11.13
2023-05-04T04:51:41.618Z,10.47
2023-05-04T04:54:08.007Z,10.33
2023-05-04T04:56:34.411Z,15.47
2023-05-04T04:59:00.781Z,10.63
2023-05-04T05:01:27.274Z,10.80
2023-05-04T05:03:53.658Z,10.30
2023-05-04T05:06:20.629Z,10.70
2023-05-04T05:08:47.026Z,10.43
2023-05-04T05:11:13.402Z,11.00
2023-05-04T05:13:39.832Z,10.70
2023-05-04T05:16:06.368Z,10.83
2023-05-04T05:18:32.895Z,10.77
2023-05-04T05:21:00.669Z,11.23
2023-05-04T05:23:27.539Z,11.37
2023-05-04T05:25:53.968Z,11.00
2023-05-04T05:28:20.327Z,10.67
2023-05-04T05:30:47.892Z,11.73
2023-05-04T05:33:14.355Z,10.90
2023-05-04T05:35:40.959Z,11.10
2023-05-04T05:38:07.325Z,11.20
2023-05-04T05:40:33.808Z,11.83
2023-05-04T05:43:00.225Z,11.80
2023-05-04T05:45:26.761Z,11.50
2023-05-04T05:47:53.144Z,10.93
2023-05-04T05:50:20.106Z,10.93
2023-05-04T05:52:46.520Z,11.23
2023-05-04T05:55:12.911Z,11.00
2023-05-04T05:57:39.246Z,11.20
2023-05-04T06:00:06.564Z,11.17
2023-05-04T06:02:38.817Z,10.40
2023-05-04T06:05:05.681Z,11.03
2023-05-04T06:07:32.086Z,10.13
2023-05-04T06:09:58.575Z,10.40
2023-05-04T06:12:25.010Z,10.57
2023-05-04T06:14:51.436Z,11.03
2023-05-04T06:17:18.600Z,11.20
2023-05-04T06:19:45.954Z,10.23
2023-05-04T06:22:12.816Z,9.73
2023-05-04T06:24:39.157Z,10.10
2023-05-04T06:27:05.601Z,10.47
2023-05-04T06:29:32.072Z,9.27
2023-05-04T06:31:58.868Z,10.03
2023-05-04T06:34:25.506Z,10.27
2023-05-04T06:36:51.886Z,10.33
2023-05-04T06:39:18.309Z,9.97
2023-05-04T06:41:44.699Z,10.10
2023-05-04T06:44:11.107Z,10.30
2023-05-04T06:46:37.518Z,10.90
2023-05-04T06:49:04.509Z,10.80
2023-05-04T06:51:31.791Z,10.27
2023-05-04T06:53:59.668Z,9.80
2023-05-04T06:56:26.240Z,9.93
2023-05-04T06:58:52.818Z,9.87
2023-05-04T07:01:19.286Z,11.00
2023-05-04T07:03:45.731Z,11.10
2023-05-04T07:06:12.232Z,10.63
2023-05-04T07:08:38.690Z,10.47
2023-05-04T07:11:05.588Z,10.20
2023-05-04T07:13:32.386Z,10.67
2023-05-04T07:15:58.752Z,10.37
2023-05-04T07:18:25.206Z,9.73
2023-05-04T07:20:52.927Z,10.93
2023-05-04T07:23:19.393Z,11.03
2023-05-04T07:25:45.815Z,9.87
2023-05-04T07:28:12.453Z,10.03
2023-05-04T07:30:38.874Z,11.03
2023-05-04T07:33:05.276Z,10.43
2023-05-04T07:35:31.680Z,10.10
2023-05-04T07:37:58.094Z,10.97
2023-05-04T07:40:25.413Z,10.90
2023-05-04T07:42:51.848Z,10.50
2023-05-04T07:45:18.453Z,9.70
2023-05-04T07:47:44.913Z,9.97
2023-05-04T07:50:11.944Z,9.87
2023-05-04T07:52:38.316Z,10.37
2023-05-04T07:55:05.189Z,9.33
2023-05-04T07:57:32.289Z,10.33
2023-05-04T07:59:58.906Z,10.13
2023-05-04T08:02:25.488Z,9.00
2023-05-04T08:04:51.881Z,9.93
2023-05-04T08:07:19.157Z,9.73
2023-05-04T08:09:45.544Z,9.87
2023-05-04T08:12:12.229Z,9.93
2023-05-04T08:14:40.072Z,9.90
2023-05-04T08:17:06.573Z,9.37
2023-05-04T08:19:33.332Z,9.50
2023-05-04T08:21:59.716Z,8.97
2023-05-04T08:24:26.162Z,8.83
2023-05-04T08:27:06.558Z,9.37
2023-05-04T08:29:36.155Z,9.27
2023-05-04T08:32:02.669Z,9.50
2023-05-04T08:34:29.114Z,8.83
2023-05-04T08:36:55.635Z,9.90
2023-05-04T08:39:22.042Z,9.07
2023-05-04T08:41:49.679Z,9.30
2023-05-04T08:44:17.438Z,9.73
2023-05-04T08:46:52.130Z,8.93
2023-05-04T08:49:23.034Z,9.07
2023-05-04T08:51:50.931Z,8.67
2023-05-04T08:54:18.244Z,9.33
2023-05-04T08:56:46.877Z,9.20
2023-05-04T08:59:23.103Z,8.30
2023-05-04T09:01:57.470Z,8.17
2023-05-04T09:04:24.194Z,9.40
2023-05-04T09:06:50.740Z,8.63
2023-05-04T09:09:17.448Z,8.47
2023-05-04T09:11:44.330Z,8.97
2023-05-04T09:14:11.219Z,9.20
2023-05-04T09:16:38.501Z,8.83
2023-05-04T09:19:17.585Z,9.23
2023-05-04T09:21:44.261Z,10.00
2023-05-04T09:24:12.468Z,7.87
2023-05-04T09:26:39.159Z,8.73
2023-05-04T09:29:15.984Z,9.67
2023-05-04T09:31:49.316Z,8.87
2023-05-04T09:34:15.996Z,8.23
2023-05-04T09:36:42.649Z,7.33
2023-05-04T09:39:13.247Z,8.57
2023-05-04T09:41:40.506Z,7.93
2023-05-04T09:44:17.998Z,7.57
2023-05-04T09:46:55.494Z,8.23
2023-05-04T09:49:35.902Z,6.60
2023-05-04T09:52:04.968Z,7.90
2023-05-04T09:54:34.708Z,6.97
2023-05-04T09:57:15.199Z,7.37
2023-05-04T09:59:42.289Z,7.83
2023-05-04T10:02:21.899Z,8.87
2023-05-04T10:04:54.120Z,7.77
2023-05-04T10:07:20.830Z,7.30
2023-05-04T10:09:48.742Z,6.77
2023-05-04T10:12:15.147Z,6.80
2023-05-04T10:14:43.025Z,7.60
2023-05-04T10:17:35.185Z,8.10
2023-05-04T10:20:09.563Z,7.50
2023-05-04T10:23:09.315Z,7.63
2023-05-04T10:26:00.523Z,7.67
2023-05-04T10:29:00.808Z,7.20
2023-05-04T10:31:37.410Z,6.83
2023-05-04T10:34:03.927Z,6.47
2023-05-04T10:36:41.505Z,5.13
2023-05-04T10:39:19.374Z,6.53
2023-05-04T10:42:04.740Z,6.63
2023-05-04T10:44:35.886Z,5.43
2023-05-04T10:47:05.454Z,5.40
2023-05-04T10:49:34.110Z,6.80
2023-05-04T10:52:10.739Z,6.27
2023-05-04T10:54:37.929Z,5.20
2023-05-04T10:57:06.321Z,5.80
2023-05-04T10:59:35.384Z,4.90
2023-05-04T11:02:03.923Z,4.30
2023-05-04T11:04:31.547Z,4.40
2023-05-04T11:07:02.993Z,4.80
2023-05-04T11:09:36.358Z,5.47
2023-05-04T11:12:02.919Z,5.10
2023-05-04T11:14:29.551Z,5.33
2023-05-04T11:17:23.987Z,4.07
2023-05-04T11:19:53.583Z,5.33
2023-05-04T11:22:20.177Z,5.27
2023-05-04T11:24:48.584Z,4.50
2023-05-04T11:27:23.209Z,5.17
2023-05-04T11:29:57.492Z,4.87
2023-05-04T11:32:46.148Z,5.13
2023-05-04T11:35:22.658Z,4.70
2023-05-04T11:37:50.363Z,5.37
2023-05-04T11:40:19.734Z,4.47
2023-05-04T11:42:46.902Z,3.97
2023-05-04T11:45:24.716Z,4.77
2023-05-04T11:47:52.316Z,3.97
2023-05-04T11:50:20.988Z,5.20
2023-05-04T11:52:47.940Z,5.87
2023-05-04T11:55:28.230Z,5.50
2023-05-04T11:58:03.338Z,5.37
2023-05-04T12:00:42.942Z,5.23
2023-05-04T12:03:14.407Z,5.50
2023-05-04T12:05:48.248Z,5.93
2023-05-04T12:08:35.289Z,5.43
2023-05-04T12:11:26.039Z,6.43
2023-05-04T12:14:07.217Z,5.97
2023-05-04T12:16:33.911Z,5.07
2023-05-04T12:19:08.315Z,5.63
2023-05-04T12:21:35.911Z,5.33
2023-05-04T12:24:03.742Z,5.50
2023-05-04T12:26:30.342Z,6.10
2023-05-04T12:28:56.926Z,5.50
2023-05-04T12:31:25.251Z,4.93
2023-05-04T12:33:52.220Z,5.40
2023-05-04T12:36:18.958Z,5.77
2023-05-04T12:38:46.021Z,4.60
2023-05-04T12:41:12.597Z,5.13
2023-05-04T12:43:39.064Z,4.90
2023-05-04T12:46:05.597Z,5.00
2023-05-04T12:48:32.912Z,4.57
2023-05-04T12:51:00.422Z,4.67
2023-05-04T12:53:31.843Z,4.37
2023-05-04T12:55:59.260Z,3.67
2023-05-04T12:58:25.925Z,4.33
2023-05-04T13:00:52.400Z,4.47
2023-05-04T13:03:18.942Z,3.40
2023-05-04T13:05:47.240Z,4.40
2023-05-04T13:08:13.588Z,4.23
2023-05-04T13:10:39.962Z,4.53
2023-05-04T13:13:06.457Z,3.92
2023-05-04T13:15:33.811Z,3.63
2023-05-04T13:18:00.461Z,3.80
2023-05-04T13:20:27.056Z,3.72
2023-05-04T13:22:54.200Z,2.90
2023-05-04T13:25:22.153Z,4.60
2023-05-04T13:27:48.824Z,3.78
2023-05-04T13:30:16.917Z,3.60
2023-05-04T13:32:43.363Z,3.30
2023-05-04T13:35:09.943Z,3.30
2023-05-04T13:37:38.056Z,3.05
2023-05-04T13:40:05.134Z,2.85
2023-05-04T13:42:31.536Z,2.85
2023-05-04T13:44:57.947Z,2.78
2023-05-04T13:47:24.348Z,2.97
2023-05-04T13:49:50.878Z,3.22
2023-05-04T13:52:17.300Z,3.72
2023-05-04T13:54:43.646Z,2.83
2023-05-04T13:57:10.124Z,3.47
2023-05-04T13:59:36.512Z,4.28
2023-05-04T14:02:03.101Z,4.05
2023-05-04T14:04:29.657Z,4.07
2023-05-04T14:06:57.518Z,4.93
2023-05-04T14:09:25.261Z,5.10
2023-05-04T14:11:51.604Z,4.82
2023-05-04T14:14:18.026Z,4.65
2023-05-04T14:16:44.445Z,5.43
2023-05-04T14:19:10.840Z,5.53
2023-05-04T14:21:37.220Z,5.03
2023-05-04T14:24:03.782Z,4.78
2023-05-04T14:26:32.553Z,5.45
2023-05-04T14:28:58.966Z,4.63
2023-05-04T14:31:25.559Z,4.25
2023-05-04T14:33:52.265Z,4.32
2023-05-04T14:36:19.319Z,5.30
2023-05-04T14:38:45.752Z,5.18
2023-05-04T14:41:13.563Z,4.80
2023-05-04T14:43:41.705Z,5.32
2023-05-04T14:46:09.362Z,4.47
2023-05-04T14:48:35.892Z,5.57
2023-05-04T14:51:02.278Z,5.10
2023-05-04T14:53:29.810Z,5.20
2023-05-04T14:55:56.172Z,5.55
2023-05-04T14:58:22.564Z,5.78
2023-05-04T15:00:48.935Z,6.15
2023-05-04T15:03:15.473Z,5.55
2023-05-04T15:05:41.862Z,5.35
2023-05-04T15:08:08.360Z,5.57
2023-05-04T15:10:34.717Z,5.93
2023-05-04T15:13:01.554Z,5.10
2023-05-04T15:15:28.008Z,5.00
2023-05-04T15:17:54.551Z,5.30
2023-05-04T15:20:20.963Z,5.88
2023-05-04T15:22:48.842Z,5.77
2023-05-04T15:25:15.552Z,5.40
2023-05-04T15:27:43.385Z,5.43
2023-05-04T15:30:11.314Z,5.43
2023-05-04T15:32:37.779Z,4.82
2023-05-04T15:35:06.327Z,5.53
2023-05-04T15:37:33.261Z,4.78
2023-05-04T15:40:01.912Z,4.20
2023-05-04T15:42:28.965Z,5.07
2023-05-04T15:44:55.544Z,4.38
2023-05-04T15:47:21.975Z,4.88
2023-05-04T15:49:48.490Z,4.80
2023-05-04T15:52:15.108Z,5.45
2023-05-04T15:54:41.554Z,5.50
2023-05-04T15:57:07.970Z,4.95
2023-05-04T15:59:34.334Z,5.83
2023-05-04T16:02:00.829Z,5.90
2023-05-04T16:04:27.744Z,5.80
2023-05-04T16:06:54.106Z,4.70
2023-05-04T16:09:20.859Z,5.10
2023-05-04T16:11:47.399Z,4.37
2023-05-04T16:14:14.239Z,5.00
2023-05-04T16:16:41.385Z,4.10
2023-05-04T16:19:09.535Z,4.53
2023-05-04T16:21:37.857Z,3.83
2023-05-04T16:24:04.564Z,4.10
2023-05-04T16:26:30.920Z,4.50
2023-05-04T16:28:57.396Z,4.97
2023-05-04T16:31:23.801Z,4.37
2023-05-04T16:33:50.214Z,4.20
2023-05-04T16:36:16.596Z,4.20
2023-05-04T16:38:43.004Z,4.10
2023-05-04T16:41:09.388Z,4.30
2023-05-04T16:43:35.820Z,4.73
2023-05-04T16:46:02.665Z,4.23
2023-05-04T16:48:29.117Z,3.90
2023-05-04T16:50:55.620Z,4.20
2023-05-04T16:53:22.199Z,4.20
2023-05-04T16:55:50.730Z,4.83
2023-05-04T16:58:17.093Z,3.83
2023-05-04T17:00:43.507Z,4.00
2023-05-04T17:03:10.007Z,4.63
2023-05-04T17:05:36.425Z,4.33
2023-05-04T17:08:02.865Z,3.73
2023-05-04T17:10:29.215Z,4.30
2023-05-04T17:12:55.785Z,3.90
2023-05-04T17:15:22.370Z,4.70
2023-05-04T17:17:48.777Z,4.03
2023-05-04T17:20:15.285Z,4.60
2023-05-04T17:22:45.277Z,4.90
2023-05-04T17:25:12.544Z,4.30
2023-05-04T17:27:39.527Z,4.97
2023-05-04T17:30:06.636Z,4.33
2023-05-04T17:32:33.754Z,3.73
2023-05-04T17:35:05.752Z,3.50
2023-05-04T17:37:35.176Z,4.20
2023-05-04T17:40:01.590Z,4.43
2023-05-04T17:42:28.012Z,4.33
2023-05-04T17:44:54.386Z,4.67
2023-05-04T17:47:20.748Z,4.80
2023-05-04T17:49:47.589Z,4.87
2023-05-04T17:52:14.034Z,5.57
2023-05-04T17:54:40.600Z,5.27
2023-05-04T17:57:07.126Z,5.20
2023-05-04T17:59:33.467Z,4.27
2023-05-04T18:01:59.960Z,4.17
2023-05-04T18:04:26.616Z,4.83
2023-05-04T18:06:52.957Z,5.13
2023-05-04T18:09:19.665Z,4.90
2023-05-04T18:11:46.789Z,5.17
2023-05-04T18:14:13.268Z,4.73
2023-05-04T18:16:39.741Z,5.37
2023-05-04T18:19:06.437Z,3.90
2023-05-04T18:21:36.919Z,4.77
2023-05-04T18:24:04.052Z,4.47
2023-05-04T18:26:30.500Z,4.63
2023-05-04T18:29:04.187Z,4.63
2023-05-04T18:31:37.879Z,4.87
2023-05-04T18:34:05.727Z,5.27
2023-05-04T18:36:32.557Z,5.17
2023-05-04T18:39:00.462Z,4.93
2023-05-04T18:41:28.182Z,5.50
2023-05-04T18:43:55.975Z,4.50
2023-05-04T18:46:23.231Z,6.03
2023-05-04T18:48:50.099Z,4.93
2023-05-04T18:51:16.523Z,5.20
2023-05-04T18:53:42.923Z,5.27
2023-05-04T18:56:10.593Z,5.07
2023-05-04T18:58:38.037Z,5.20
2023-05-04T19:01:04.932Z,5.30
2023-05-04T19:03:32.086Z,5.40
2023-05-04T19:05:58.558Z,6.63
2023-05-04T19:08:24.952Z,5.03
2023-05-04T19:10:51.381Z,5.60
2023-05-04T19:13:17.979Z,5.40
2023-05-04T19:15:44.623Z,4.83
2023-05-04T19:18:11.831Z,5.43
2023-05-04T19:20:39.030Z,6.30
2023-05-04T19:23:05.675Z,5.10
2023-05-04T19:25:35.235Z,6.10
2023-05-04T19:28:08.284Z,6.47
2023-05-04T19:30:40.989Z,6.07
2023-05-04T19:33:10.441Z,6.47
2023-05-04T19:35:37.134Z,6.50
2023-05-04T19:38:06.209Z,6.03
2023-05-04T19:40:35.744Z,6.30
2023-05-04T19:43:02.219Z,6.63
2023-05-04T19:45:28.764Z,6.70
2023-05-04T19:47:55.425Z,6.87
2023-05-04T19:50:22.105Z,6.63
2023-05-04T19:52:48.532Z,8.50
2023-05-04T19:55:16.382Z,6.77
2023-05-04T19:57:43.437Z,7.37
2023-05-04T20:00:10.433Z,6.57
2023-05-04T20:02:39.786Z,6.60
2023-05-04T20:05:06.321Z,7.20
2023-05-04T20:07:32.825Z,6.77
2023-05-04T20:09:59.332Z,7.00
2023-05-04T20:12:26.769Z,7.07
2023-05-04T20:14:53.120Z,6.23
2023-05-04T20:17:19.490Z,8.10
2023-05-04T20:19:46.116Z,7.20
2023-05-04T20:22:12.542Z,7.27
2023-05-04T20:24:39.002Z,7.43
2023-05-04T20:27:05.425Z,7.47
2023-05-04T20:29:32.148Z,8.10
2023-05-04T20:32:02.786Z,7.83
2023-05-04T20:34:29.257Z,7.93
2023-05-04T20:36:56.270Z,7.97
2023-05-04T20:39:22.847Z,8.73
2023-05-04T20:41:49.810Z,8.73
2023-05-04T20:44:17.008Z,8.77
2023-05-04T20:46:44.132Z,9.03
2023-05-04T20:49:11.156Z,8.63
2023-05-04T20:51:38.128Z,8.43
2023-05-04T20:54:04.642Z,7.87
2023-05-04T20:56:31.152Z,8.53
2023-05-04T20:58:57.521Z,9.70
2023-05-04T21:01:24.063Z,9.70
2023-05-04T21:03:50.758Z,9.20
2023-05-04T21:06:17.243Z,9.03
2023-05-04T21:08:43.715Z,9.60
2023-05-04T21:11:10.073Z,9.40
2023-05-04T21:13:36.409Z,9.43
2023-05-04T21:16:02.923Z,8.40
2023-05-04T21:18:29.295Z,9.07
2023-05-04T21:20:55.636Z,9.93
2023-05-04T21:23:22.074Z,8.70
2023-05-04T21:25:48.416Z,9.33
2023-05-04T21:28:14.768Z,8.43
2023-05-04T21:30:41.918Z,9.23
2023-05-04T21:33:08.356Z,8.67
2023-05-04T21:35:34.737Z,8.47
2023-05-04T21:38:01.174Z,9.23
2023-05-04T21:40:27.570Z,8.77
2023-05-04T21:42:54.009Z,8.17
2023-05-04T21:45:20.627Z,9.53
2023-05-04T21:47:47.049Z,9.07
2023-05-04T21:50:13.470Z,7.57
2023-05-04T21:52:39.812Z,8.40
2023-05-04T21:55:06.868Z,7.87
2023-05-04T21:57:33.299Z,8.07
2023-05-04T21:59:59.838Z,9.50
2023-05-04T22:02:26.258Z,8.50
2023-05-04T22:04:52.715Z,8.73
2023-05-04T22:07:19.048Z,8.53
2023-05-04T22:09:45.408Z,8.73
2023-05-04T22:12:11.753Z,8.93
2023-05-04T22:14:39.430Z,8.17
2023-05-04T22:17:07.596Z,9.03
2023-05-04T22:19:33.974Z,8.63
2023-05-04T22:22:00.383Z,9.20
2023-05-04T22:24:26.820Z,8.57
2023-05-04T22:26:53.178Z,8.00
2023-05-04T22:29:19.548Z,7.90
2023-05-04T22:31:45.922Z,8.47
2023-05-04T22:34:12.366Z,7.97
2023-05-04T22:36:38.892Z,8.23
2023-05-04T22:39:05.227Z,8.43
2023-05-04T22:41:31.555Z,9.67
2023-05-04T22:43:57.919Z,9.20
2023-05-04T22:46:25.387Z,9.33
2023-05-04T22:48:51.866Z,8.03
2023-05-04T22:51:18.195Z,8.47
2023-05-04T22:53:44.857Z,8.43
2023-05-04T22:56:11.317Z,8.50
2023-05-04T22:58:37.665Z,8.07
2023-05-04T23:01:09.018Z,8.30
2023-05-04T23:03:35.471Z,9.10
2023-05-04T23:06:02.299Z,9.00
2023-05-04T23:08:28.638Z,8.80
2023-05-04T23:10:54.976Z,7.67
2023-05-04T23:13:21.826Z,8.30
2023-05-04T23:15:48.290Z,8.53
2023-05-04T23:18:14.634Z,8.17
2023-05-04T23:20:41.046Z,8.10
2023-05-04T23:23:07.378Z,8.50
2023-05-04T23:25:33.824Z,8.43
2023-05-04T23:28:00.197Z,9.03
2023-05-04T23:30:26.744Z,8.97
2023-05-04T23:32:53.211Z,8.63
2023-05-04T23:35:19.650Z,7.83
2023-05-04T23:37:46.395Z,8.00
2023-05-04T23:40:12.836Z,8.07
2023-05-04T23:42:39.179Z,7.93
2023-05-04T23:45:06.206Z,8.27
2023-05-04T23:47:32.610Z,8.07
2023-05-04T23:49:59.077Z,7.90
2023-05-04T23:52:25.497Z,8.00
2023-05-04T23:54:54.672Z,8.03
2023-05-04T23:57:21.101Z,8.20
2023-05-04T23:59:47.548Z,8.43
